Terminal Aerodrome Forecast
Issued by NWS

Home | Current Version | Previous Version | Text Only | Print | Product List | Glossary On
Versions: 1 2 3 4 5 6 7 8 9 10 11 12
000
FTUS42 KGSP 211731
TAFAND
TAF
KAND 211731Z 2118/2218 12005KT P6SM FEW050 SCT250
     FM220200 15003KT P6SM FEW250
     FM221300 23003KT P6SM FEW250
     FM221500 25004KT P6SM FEW030=

USA.gov is the U.S. government's official web portal to all federal, state and local government web resources and services.